createdAt,value
2022-09-11T00:01:14.214Z,61.76
2022-09-11T00:03:42.785Z,61.74
2022-09-11T00:06:20.429Z,61.53
2022-09-11T00:09:02.897Z,61.85
2022-09-11T00:11:33.099Z,61.84
2022-09-11T00:14:00.226Z,61.79
2022-09-11T00:16:28.836Z,62.38
2022-09-11T00:18:58.503Z,62.07
2022-09-11T00:21:26.422Z,62.05
2022-09-11T00:23:53.652Z,62.16
2022-09-11T00:26:21.405Z,62.03
2022-09-11T00:28:49.067Z,62.51
2022-09-11T00:31:17.903Z,62.08
2022-09-11T00:33:44.870Z,62.16
2022-09-11T00:36:17.178Z,62.12
2022-09-11T00:38:44.151Z,62.38
2022-09-11T00:41:15.537Z,62.23
2022-09-11T00:44:06.149Z,62.49
2022-09-11T00:46:37.678Z,62.36
2022-09-11T00:49:21.316Z,62.15
2022-09-11T00:51:51.048Z,62.48
2022-09-11T00:54:21.143Z,62.24
2022-09-11T00:56:48.170Z,62.05
2022-09-11T00:59:15.995Z,62.11
2022-09-11T01:01:43.616Z,61.89
2022-09-11T01:04:10.817Z,62.02
2022-09-11T01:06:37.580Z,62.07
2022-09-11T01:09:04.560Z,61.94
2022-09-11T01:11:42.258Z,62.14
2022-09-11T01:14:35.677Z,62.29
2022-09-11T01:17:22.546Z,62.23
2022-09-11T01:20:21.134Z,62.01
2022-09-11T01:23:10.748Z,62.06
2022-09-11T01:26:14.506Z,62.08
2022-09-11T01:28:51.802Z,61.84
2022-09-11T01:31:23.164Z,61.89
2022-09-11T01:34:05.910Z,61.92
2022-09-11T01:36:36.447Z,62.29
2022-09-11T01:39:04.357Z,61.76
2022-09-11T01:42:03.565Z,61.67
2022-09-11T01:44:42.364Z,62.01
2022-09-11T01:47:10.990Z,61.94
2022-09-11T01:49:48.765Z,61.59
2022-09-11T01:52:21.583Z,62.04
2022-09-11T01:54:57.627Z,62.06
2022-09-11T01:57:49.951Z,61.86
2022-09-11T02:00:17.299Z,61.71
2022-09-11T02:02:56.255Z,61.91
2022-09-11T02:05:27.623Z,61.88
2022-09-11T02:08:10.498Z,62.06
2022-09-11T02:10:44.271Z,61.83
2022-09-11T02:13:13.935Z,61.80
2022-09-11T02:15:46.691Z,62.18
2022-09-11T02:18:24.854Z,62.29
2022-09-11T02:20:53.397Z,62.09
2022-09-11T02:23:20.620Z,61.99
2022-09-11T02:25:48.158Z,62.11
2022-09-11T02:28:15.243Z,62.00
2022-09-11T02:30:43.009Z,62.09
2022-09-11T02:33:29.913Z,61.93
2022-09-11T02:36:07.697Z,61.80
2022-09-11T02:38:42.754Z,62.07
2022-09-11T02:41:15.009Z,62.11
2022-09-11T02:43:54.082Z,61.96
2022-09-11T02:46:26.953Z,61.92
2022-09-11T02:49:10.517Z,61.90
2022-09-11T02:51:42.017Z,61.82
2022-09-11T02:54:25.630Z,61.77
2022-09-11T02:57:19.379Z,61.68
2022-09-11T03:00:01.247Z,62.15
2022-09-11T03:02:31.087Z,61.73
2022-09-11T03:04:58.085Z,61.72
2022-09-11T03:07:25.711Z,62.00
2022-09-11T03:09:53.238Z,61.71
2022-09-11T03:12:22.821Z,61.59
2022-09-11T03:14:51.670Z,61.76
2022-09-11T03:17:18.455Z,61.62
2022-09-11T03:19:46.907Z,61.62
2022-09-11T03:22:14.791Z,61.85
2022-09-11T03:24:42.906Z,61.72
2022-09-11T03:27:10.601Z,62.13
2022-09-11T03:29:40.808Z,61.95
2022-09-11T03:32:07.777Z,62.18
2022-09-11T03:34:34.457Z,62.21
2022-09-11T03:37:02.222Z,61.93
2022-09-11T03:39:29.085Z,62.17
2022-09-11T03:41:58.917Z,61.81
2022-09-11T03:44:27.307Z,61.87
2022-09-11T03:46:54.050Z,61.79
2022-09-11T03:49:26.683Z,61.62
2022-09-11T03:51:55.032Z,61.55
2022-09-11T03:54:22.147Z,62.05
2022-09-11T03:56:51.518Z,61.70
2022-09-11T03:59:20.358Z,62.07
2022-09-11T04:01:50.881Z,61.98
2022-09-11T04:04:18.123Z,61.86
2022-09-11T04:06:45.673Z,61.43
2022-09-11T04:09:12.808Z,61.54
2022-09-11T04:11:40.164Z,61.75
2022-09-11T04:14:14.410Z,61.59
2022-09-11T04:16:43.502Z,61.80
2022-09-11T04:19:11.630Z,62.01
2022-09-11T04:21:39.388Z,62.07
2022-09-11T04:24:06.606Z,61.75
2022-09-11T04:26:35.812Z,61.78
2022-09-11T04:29:11.915Z,61.99
2022-09-11T04:31:41.312Z,61.73
2022-09-11T04:34:09.537Z,61.99
2022-09-11T04:36:37.583Z,61.99
2022-09-11T04:39:05.544Z,61.72
2022-09-11T04:41:32.409Z,61.59
2022-09-11T04:44:05.252Z,61.50
2022-09-11T04:46:37.026Z,61.47
2022-09-11T04:49:06.474Z,61.96
2022-09-11T04:51:36.685Z,61.86
2022-09-11T04:54:04.740Z,61.77
2022-09-11T04:56:39.926Z,61.95
2022-09-11T04:59:16.200Z,61.67
2022-09-11T05:02:05.308Z,62.26
2022-09-11T05:04:35.242Z,62.08
2022-09-11T05:07:02.663Z,61.69
2022-09-11T05:09:29.499Z,61.72
2022-09-11T05:11:58.106Z,61.98
2022-09-11T05:14:31.007Z,61.77
2022-09-11T05:16:57.924Z,61.58
2022-09-11T05:19:26.878Z,61.86
2022-09-11T05:21:53.722Z,62.15
2022-09-11T05:24:20.458Z,61.84
2022-09-11T05:26:47.296Z,61.94
2022-09-11T05:29:15.716Z,61.88
2022-09-11T05:31:47.919Z,61.84
2022-09-11T05:34:17.764Z,61.49
2022-09-11T05:36:45.923Z,61.95
2022-09-11T05:39:12.836Z,61.52
2022-09-11T05:41:40.278Z,61.50
2022-09-11T05:44:07.558Z,61.54
2022-09-11T05:46:36.825Z,61.74
2022-09-11T05:49:03.809Z,61.49
2022-09-11T05:51:30.575Z,61.50
2022-09-11T05:53:58.718Z,61.55
2022-09-11T05:56:26.492Z,62.02
2022-09-11T05:58:58.716Z,61.99
2022-09-11T06:01:33.771Z,61.65
2022-09-11T06:04:12.471Z,61.67
2022-09-11T06:06:41.723Z,61.83
2022-09-11T06:09:08.512Z,61.71
2022-09-11T06:11:35.648Z,61.32
2022-09-11T06:14:03.341Z,61.67
2022-09-11T06:16:31.797Z,61.20
2022-09-11T06:19:07.697Z,61.51
2022-09-11T06:21:34.899Z,61.47
2022-09-11T06:24:08.302Z,61.08
2022-09-11T06:26:35.740Z,61.09
2022-09-11T06:29:03.159Z,60.99
2022-09-11T06:31:31.266Z,61.13
2022-09-11T06:33:57.933Z,60.92
2022-09-11T06:36:30.110Z,60.99
2022-09-11T06:38:58.685Z,60.98
2022-09-11T06:41:28.361Z,60.98
2022-09-11T06:44:10.172Z,60.91
2022-09-11T06:46:40.368Z,61.05
2022-09-11T06:49:09.138Z,61.10
2022-09-11T06:51:55.774Z,61.24
2022-09-11T06:54:22.852Z,60.58
2022-09-11T06:56:49.732Z,61.08
2022-09-11T06:59:16.609Z,60.55
2022-09-11T07:01:44.114Z,60.54
2022-09-11T07:04:11.916Z,60.65
2022-09-11T07:06:39.127Z,60.63
2022-09-11T07:09:05.950Z,60.54
2022-09-11T07:11:43.751Z,60.35
2022-09-11T07:14:11.051Z,60.37
2022-09-11T07:16:40.336Z,60.12
2022-09-11T07:19:10.665Z,60.42
2022-09-11T07:21:39.169Z,60.46
2022-09-11T07:24:07.093Z,60.00
2022-09-11T07:26:37.923Z,60.23
2022-09-11T07:29:12.732Z,59.71
2022-09-11T07:31:40.192Z,59.66
2022-09-11T07:34:07.085Z,59.95
2022-09-11T07:36:35.109Z,59.45
2022-09-11T07:39:04.928Z,59.51
2022-09-11T07:41:37.019Z,59.84
2022-09-11T07:44:10.238Z,59.15
2022-09-11T07:46:40.305Z,59.35
2022-09-11T07:49:10.038Z,59.19
2022-09-11T07:51:38.124Z,58.98
2022-09-11T07:54:07.078Z,59.11
2022-09-11T07:56:35.413Z,58.31
2022-09-11T07:59:08.202Z,58.51
2022-09-11T08:01:36.960Z,58.83
2022-09-11T08:04:10.849Z,58.72
2022-09-11T08:06:38.551Z,58.41
2022-09-11T08:09:14.706Z,58.07
2022-09-11T08:11:48.647Z,57.82
2022-09-11T08:14:17.802Z,57.83
2022-09-11T08:16:48.405Z,57.68
2022-09-11T08:19:21.830Z,57.51
2022-09-11T08:21:53.520Z,57.38
2022-09-11T08:24:21.470Z,57.16
2022-09-11T08:26:51.057Z,56.92
2022-09-11T08:29:19.428Z,57.13
2022-09-11T08:31:47.454Z,56.53
2022-09-11T08:34:15.774Z,56.60
2022-09-11T08:36:43.017Z,56.14
2022-09-11T08:39:11.122Z,56.37
2022-09-11T08:41:49.914Z,56.20
2022-09-11T08:44:25.594Z,55.29
2022-09-11T08:47:06.219Z,55.56
2022-09-11T08:49:43.373Z,55.55
2022-09-11T08:52:13.948Z,55.45
2022-09-11T08:54:42.215Z,55.13
2022-09-11T08:57:21.049Z,54.87
2022-09-11T09:00:09.878Z,55.16
2022-09-11T09:03:09.538Z,54.79
2022-09-11T09:05:52.338Z,54.22
2022-09-11T09:08:37.422Z,54.58
2022-09-11T09:11:20.494Z,54.50
2022-09-11T09:14:14.387Z,54.48
2022-09-11T09:16:49.821Z,54.03
2022-09-11T09:19:25.617Z,54.21
2022-09-11T09:22:14.362Z,53.76
2022-09-11T09:24:48.553Z,53.79
2022-09-11T09:27:20.100Z,53.77
2022-09-11T09:29:51.902Z,53.94
2022-09-11T09:32:24.164Z,53.94
2022-09-11T09:34:52.895Z,53.78
2022-09-11T09:37:23.674Z,53.24
2022-09-11T09:39:52.155Z,53.70
2022-09-11T09:42:57.801Z,53.71
2022-09-11T09:45:43.702Z,53.63
2022-09-11T09:48:11.857Z,53.76
2022-09-11T09:50:40.112Z,53.70
2022-09-11T09:53:12.017Z,53.39
2022-09-11T09:55:40.086Z,53.90
2022-09-11T09:58:07.647Z,53.34
2022-09-11T10:00:36.308Z,53.43
2022-09-11T10:03:21.183Z,53.67
2022-09-11T10:05:49.432Z,53.26
2022-09-11T10:08:36.059Z,53.56
2022-09-11T10:11:07.729Z,53.26
2022-09-11T10:13:41.719Z,53.46
2022-09-11T10:16:29.067Z,52.94
2022-09-11T10:18:56.327Z,52.63
2022-09-11T10:21:23.084Z,52.90
2022-09-11T10:24:01.073Z,53.01
2022-09-11T10:26:31.484Z,52.57
2022-09-11T10:29:19.260Z,52.97
2022-09-11T10:31:51.606Z,52.23
2022-09-11T10:34:20.164Z,52.15
2022-09-11T10:36:55.087Z,51.66
2022-09-11T10:39:23.537Z,51.51
2022-09-11T10:41:54.450Z,51.18
2022-09-11T10:44:22.519Z,50.91
2022-09-11T10:47:15.714Z,51.18
2022-09-11T10:49:42.565Z,51.08
2022-09-11T10:52:09.144Z,50.98
2022-09-11T10:55:03.192Z,50.50
2022-09-11T10:57:38.625Z,50.40
2022-09-11T11:00:09.184Z,49.92
2022-09-11T11:02:39.541Z,49.82
2022-09-11T11:05:08.742Z,49.53
2022-09-11T11:07:45.189Z,49.97
2022-09-11T11:10:44.963Z,49.70
2022-09-11T11:13:31.202Z,49.46
2022-09-11T11:16:13.978Z,49.23
2022-09-11T11:18:59.894Z,49.22
2022-09-11T11:21:26.682Z,49.47
2022-09-11T11:24:02.636Z,49.36
2022-09-11T11:26:57.430Z,49.26
2022-09-11T11:29:51.428Z,49.47
2022-09-11T11:32:53.716Z,49.53
2022-09-11T11:36:07.885Z,49.99
2022-09-11T11:39:00.583Z,49.94
2022-09-11T11:41:27.310Z,49.90
2022-09-11T11:43:55.678Z,49.67
2022-09-11T11:46:40.339Z,49.97
2022-09-11T11:49:31.482Z,49.93
2022-09-11T11:52:15.426Z,49.82
2022-09-11T11:54:49.758Z,49.20
2022-09-11T11:57:20.562Z,49.76
2022-09-11T11:59:55.738Z,49.18
2022-09-11T12:02:30.917Z,48.90
2022-09-11T12:05:08.233Z,48.98
2022-09-11T12:07:37.357Z,49.00
2022-09-11T12:10:06.198Z,48.82
2022-09-11T12:12:44.642Z,49.40
2022-09-11T12:15:32.277Z,49.18
2022-09-11T12:18:04.866Z,49.25
2022-09-11T12:20:35.245Z,49.24
2022-09-11T12:23:01.968Z,49.25
2022-09-11T12:25:28.577Z,49.27
2022-09-11T12:28:23.453Z,48.92
2022-09-11T12:31:07.925Z,48.94
2022-09-11T12:33:40.780Z,48.81
2022-09-11T12:36:36.631Z,48.42
2022-09-11T12:39:14.455Z,48.99
2022-09-11T12:41:41.618Z,48.76
2022-09-11T12:44:51.063Z,48.94
2022-09-11T12:47:39.039Z,48.33
2022-09-11T12:50:05.677Z,48.37
2022-09-11T12:52:40.278Z,48.36
2022-09-11T12:55:31.447Z,48.25
2022-09-11T12:58:02.650Z,48.61
2022-09-11T13:00:38.323Z,48.00
2022-09-11T13:03:07.338Z,48.07
2022-09-11T13:05:38.510Z,47.51
2022-09-11T13:08:16.378Z,47.36
2022-09-11T13:10:43.362Z,47.53
2022-09-11T13:13:34.919Z,47.55
2022-09-11T13:16:19.006Z,47.51
2022-09-11T13:18:45.784Z,47.05
2022-09-11T13:21:15.042Z,47.07
2022-09-11T13:23:43.068Z,46.29
2022-09-11T13:26:15.994Z,46.09
2022-09-11T13:28:47.602Z,46.55
2022-09-11T13:31:29.801Z,46.78
2022-09-11T13:33:56.982Z,46.25
2022-09-11T13:36:24.695Z,46.25
2022-09-11T13:38:56.061Z,46.50
2022-09-11T13:41:25.858Z,46.41
2022-09-11T13:43:58.526Z,46.73
2022-09-11T13:46:31.468Z,46.36
2022-09-11T13:49:10.980Z,46.46
2022-09-11T13:51:43.244Z,46.05
2022-09-11T13:54:13.339Z,46.50
2022-09-11T13:57:07.364Z,46.52
2022-09-11T13:59:38.381Z,46.12
2022-09-11T14:02:21.877Z,46.19
2022-09-11T14:04:50.301Z,45.89
2022-09-11T14:07:20.456Z,45.74
2022-09-11T14:09:48.097Z,45.55
2022-09-11T14:12:14.920Z,45.44
2022-09-11T14:14:46.949Z,45.34
2022-09-11T14:17:14.685Z,45.51
2022-09-11T14:19:42.978Z,45.17
2022-09-11T14:22:36.402Z,45.00
2022-09-11T14:25:09.434Z,45.48
2022-09-11T14:27:43.159Z,45.55
2022-09-11T14:30:37.151Z,45.25
2022-09-11T14:33:15.174Z,45.48
2022-09-11T14:35:42.857Z,45.53
2022-09-11T14:38:11.876Z,45.48
2022-09-11T14:40:43.793Z,45.63
2022-09-11T14:43:11.912Z,45.56
2022-09-11T14:45:39.066Z,45.44
2022-09-11T14:48:11.690Z,45.42
2022-09-11T14:50:38.961Z,45.56
2022-09-11T14:53:05.675Z,45.78
2022-09-11T14:55:32.571Z,45.54
2022-09-11T14:57:59.355Z,45.50
2022-09-11T15:00:26.017Z,45.91
2022-09-11T15:02:52.918Z,45.52
2022-09-11T15:05:22.947Z,45.44
2022-09-11T15:07:49.736Z,45.92
2022-09-11T15:10:16.495Z,45.85
2022-09-11T15:12:44.476Z,45.12
2022-09-11T15:15:13.872Z,45.51
2022-09-11T15:17:40.617Z,45.89
2022-09-11T15:20:09.462Z,45.70
2022-09-11T15:22:38.203Z,45.03
2022-09-11T15:25:05.666Z,45.21
2022-09-11T15:27:32.506Z,43.88
2022-09-11T15:30:00.499Z,38.37
2022-09-11T15:32:27.530Z,31.93
2022-09-11T15:34:54.910Z,28.06
2022-09-11T15:37:22.096Z,24.78
2022-09-11T15:39:49.613Z,23.34
2022-09-11T15:42:16.249Z,22.17
2022-09-11T15:44:42.772Z,21.44
2022-09-11T15:47:10.020Z,20.31
2022-09-11T15:49:41.818Z,19.66
2022-09-11T15:52:11.210Z,19.09
2022-09-11T15:54:37.890Z,18.65
2022-09-11T15:57:04.629Z,18.11
2022-09-11T15:59:31.305Z,18.00
2022-09-11T16:01:59.287Z,18.48
2022-09-11T16:04:28.305Z,18.20
2022-09-11T16:06:55.457Z,17.96
2022-09-11T16:09:24.835Z,17.80
2022-09-11T16:11:53.311Z,17.84
2022-09-11T16:14:32.609Z,18.00
2022-09-11T16:17:00.369Z,18.11
2022-09-11T16:19:28.387Z,17.98
2022-09-11T16:21:56.981Z,18.34
2022-09-11T16:24:25.530Z,18.16
2022-09-11T16:26:55.740Z,18.64
2022-09-11T16:29:24.546Z,19.09
2022-09-11T16:31:51.532Z,18.37
2022-09-11T16:34:18.172Z,18.56
2022-09-11T16:36:45.622Z,19.29
2022-09-11T16:39:14.205Z,18.76
2022-09-11T16:41:40.953Z,19.60
2022-09-11T16:44:09.218Z,21.17
2022-09-11T16:46:36.230Z,24.10
2022-09-11T16:49:03.300Z,26.77
2022-09-11T16:51:30.182Z,29.23
2022-09-11T16:53:56.971Z,30.61
2022-09-11T16:56:24.425Z,31.75
2022-09-11T16:58:51.474Z,33.27
2022-09-11T17:01:28.080Z,34.40
2022-09-11T17:03:56.247Z,35.87
2022-09-11T17:06:24.583Z,36.74
2022-09-11T17:08:51.630Z,37.53
2022-09-11T17:11:20.564Z,38.16
2022-09-11T17:13:47.769Z,39.02
2022-09-11T17:16:17.244Z,39.09
2022-09-11T17:18:53.584Z,40.00
2022-09-11T17:21:24.036Z,40.61
2022-09-11T17:23:52.246Z,40.80
2022-09-11T17:26:19.169Z,41.33
2022-09-11T17:28:47.821Z,41.63
2022-09-11T17:31:16.900Z,41.93
2022-09-11T17:33:45.495Z,42.43
2022-09-11T17:36:12.943Z,42.80
2022-09-11T17:38:40.590Z,43.37
2022-09-11T17:41:08.592Z,44.28
2022-09-11T17:43:36.921Z,45.08
2022-09-11T17:46:10.506Z,45.32
2022-09-11T17:48:39.199Z,46.43
2022-09-11T17:51:10.168Z,46.52
2022-09-11T17:53:41.548Z,46.94
2022-09-11T17:56:17.481Z,47.24
2022-09-11T17:58:45.420Z,47.32
2022-09-11T18:01:16.588Z,47.52
2022-09-11T18:03:44.239Z,47.92
2022-09-11T18:06:37.759Z,47.81
2022-09-11T18:09:16.268Z,48.18
2022-09-11T18:11:44.854Z,48.59
2022-09-11T18:14:12.017Z,48.77
2022-09-11T18:16:39.220Z,48.99
2022-09-11T18:19:06.589Z,49.37
2022-09-11T18:21:38.161Z,49.30
2022-09-11T18:24:06.689Z,49.94
2022-09-11T18:26:37.079Z,50.06
2022-09-11T18:29:04.675Z,50.27
2022-09-11T18:31:33.128Z,50.44
2022-09-11T18:34:00.907Z,50.32
2022-09-11T18:36:29.672Z,50.36
2022-09-11T18:39:00.145Z,50.83
2022-09-11T18:41:28.239Z,51.21
2022-09-11T18:43:56.247Z,51.35
2022-09-11T18:46:23.711Z,51.18
2022-09-11T18:48:51.330Z,51.71
2022-09-11T18:51:19.794Z,51.85
2022-09-11T18:53:54.066Z,52.43
2022-09-11T18:56:22.434Z,52.44
2022-09-11T18:58:50.528Z,52.30
2022-09-11T19:01:19.459Z,52.26
2022-09-11T19:03:47.482Z,52.55
2022-09-11T19:06:20.547Z,52.78
2022-09-11T19:08:48.581Z,52.94
2022-09-11T19:11:27.265Z,52.82
2022-09-11T19:13:56.855Z,53.39
2022-09-11T19:16:23.977Z,53.52
2022-09-11T19:18:50.832Z,53.50
2022-09-11T19:21:20.803Z,53.75
2022-09-11T19:23:50.282Z,53.61
2022-09-11T19:26:22.901Z,54.17
2022-09-11T19:28:50.704Z,53.74
2022-09-11T19:31:24.576Z,53.97
2022-09-11T19:33:52.051Z,54.21
2022-09-11T19:36:21.678Z,54.07
2022-09-11T19:38:50.623Z,53.52
2022-09-11T19:41:23.184Z,53.73
2022-09-11T19:43:50.868Z,54.15
2022-09-11T19:46:24.325Z,54.14
2022-09-11T19:48:53.357Z,54.51
2022-09-11T19:51:23.849Z,54.08
2022-09-11T19:53:51.198Z,54.06
2022-09-11T19:56:19.087Z,53.93
2022-09-11T19:58:46.078Z,54.12
2022-09-11T20:01:15.302Z,54.62
2022-09-11T20:03:43.959Z,54.18
2022-09-11T20:06:12.583Z,54.36
2022-09-11T20:08:43.380Z,54.26
2022-09-11T20:11:13.675Z,54.57
2022-09-11T20:13:40.596Z,54.36
2022-09-11T20:16:11.204Z,54.52
2022-09-11T20:18:38.261Z,54.64
2022-09-11T20:21:06.998Z,54.26
2022-09-11T20:23:34.186Z,54.69
2022-09-11T20:26:17.463Z,54.72
2022-09-11T20:28:46.094Z,54.55
2022-09-11T20:31:20.056Z,54.68
2022-09-11T20:33:49.433Z,54.65
2022-09-11T20:36:16.892Z,54.96
2022-09-11T20:38:43.625Z,54.83
2022-09-11T20:41:14.426Z,55.03
2022-09-11T20:43:42.007Z,54.90
2022-09-11T20:46:09.604Z,54.65
2022-09-11T20:48:37.444Z,55.06
2022-09-11T20:51:06.474Z,54.90
2022-09-11T20:53:33.461Z,54.74
2022-09-11T20:56:04.863Z,54.82
2022-09-11T20:58:32.437Z,54.94
2022-09-11T21:01:00.671Z,54.88
2022-09-11T21:03:29.061Z,55.14
2022-09-11T21:05:56.660Z,54.97
2022-09-11T21:08:25.507Z,55.16
2022-09-11T21:10:52.248Z,55.33
2022-09-11T21:13:18.995Z,55.28
2022-09-11T21:15:47.410Z,55.33
2022-09-11T21:18:14.683Z,55.42
2022-09-11T21:20:41.291Z,55.39
2022-09-11T21:23:08.135Z,55.33
2022-09-11T21:25:39.467Z,55.55
2022-09-11T21:28:06.211Z,55.50
2022-09-11T21:30:33.035Z,55.30
2022-09-11T21:32:59.694Z,55.63
2022-09-11T21:35:26.366Z,55.53
2022-09-11T21:37:53.034Z,55.81
2022-09-11T21:40:19.683Z,55.64
2022-09-11T21:42:46.411Z,55.50
2022-09-11T21:45:13.030Z,55.77
2022-09-11T21:47:39.777Z,55.74
2022-09-11T21:50:07.200Z,55.49
2022-09-11T21:52:34.253Z,55.85
2022-09-11T21:55:00.942Z,55.63
2022-09-11T21:57:30.947Z,55.35
2022-09-11T21:59:58.155Z,55.73
2022-09-11T22:02:25.853Z,55.82
2022-09-11T22:04:53.145Z,55.61
2022-09-11T22:07:20.347Z,55.71
2022-09-11T22:09:48.034Z,55.50
2022-09-11T22:12:15.626Z,55.64
2022-09-11T22:14:44.399Z,55.68
2022-09-11T22:17:11.990Z,55.58
2022-09-11T22:19:38.716Z,55.47
2022-09-11T22:22:06.780Z,55.95
2022-09-11T22:24:33.701Z,55.67
2022-09-11T22:27:00.375Z,55.63
2022-09-11T22:29:27.091Z,55.90
2022-09-11T22:31:53.767Z,55.67
2022-09-11T22:34:20.557Z,55.76
2022-09-11T22:36:47.402Z,55.55
2022-09-11T22:39:14.136Z,55.83
2022-09-11T22:41:41.013Z,55.65
2022-09-11T22:44:09.598Z,56.11
2022-09-11T22:46:36.244Z,55.75
2022-09-11T22:49:03.641Z,56.20
2022-09-11T22:51:34.025Z,56.02
2022-09-11T22:54:00.827Z,55.91
2022-09-11T22:56:27.474Z,55.79
2022-09-11T22:58:54.202Z,55.80
2022-09-11T23:01:22.718Z,56.01
2022-09-11T23:03:53.262Z,56.12
2022-09-11T23:06:39.054Z,55.91
2022-09-11T23:09:07.582Z,55.76
2022-09-11T23:11:34.322Z,55.99
2022-09-11T23:14:01.014Z,56.24
2022-09-11T23:16:29.410Z,56.15
2022-09-11T23:18:58.585Z,56.29
2022-09-11T23:21:26.063Z,56.32
2022-09-11T23:23:54.909Z,56.17
2022-09-11T23:26:22.073Z,56.33
2022-09-11T23:28:48.814Z,56.32
2022-09-11T23:31:25.587Z,56.13
2022-09-11T23:33:54.389Z,55.98
2022-09-11T23:36:21.578Z,56.46
2022-09-11T23:38:49.323Z,56.38
2022-09-11T23:41:16.659Z,56.17
2022-09-11T23:43:43.546Z,56.71
2022-09-11T23:46:10.815Z,56.74
2022-09-11T23:48:37.487Z,56.47
2022-09-11T23:51:05.507Z,56.51
2022-09-11T23:53:32.238Z,56.52
2022-09-11T23:55:59.030Z,56.37
2022-09-11T23:58:25.852Z,56.34
